createdAt,value
2023-03-22T00:04:16.487Z,3.10
2023-03-22T00:09:18.704Z,3.07
2023-03-22T00:14:21.210Z,2.90
2023-03-22T00:19:23.401Z,3.53
2023-03-22T00:24:25.557Z,3.03
2023-03-22T00:29:27.924Z,3.00
2023-03-22T00:34:34.378Z,3.13
2023-03-22T00:39:38.186Z,2.77
2023-03-22T00:44:42.020Z,3.07
2023-03-22T00:49:44.407Z,3.37
2023-03-22T00:54:47.716Z,3.30
2023-03-22T00:59:50.449Z,3.00
2023-03-22T01:04:54.206Z,2.83
2023-03-22T01:09:57.676Z,3.90
2023-03-22T01:15:00.083Z,3.10
2023-03-22T01:20:02.592Z,3.37
2023-03-22T01:25:05.772Z,3.03
2023-03-22T01:30:09.164Z,3.03
2023-03-22T01:35:11.587Z,3.90
2023-03-22T01:40:16.353Z,3.10
2023-03-22T01:45:41.579Z,3.73
2023-03-22T01:50:56.282Z,3.47
2023-03-22T01:56:00.301Z,3.70
2023-03-22T02:01:09.133Z,3.90
2023-03-22T02:06:24.966Z,3.20
2023-03-22T02:11:44.142Z,3.17
2023-03-22T02:17:39.130Z,3.33
2023-03-22T02:23:23.040Z,3.23
2023-03-22T02:28:49.548Z,3.17
2023-03-22T02:34:27.156Z,3.40
2023-03-22T02:39:55.633Z,2.50
2023-03-22T02:45:15.469Z,3.13
2023-03-22T02:50:29.010Z,2.50
2023-03-22T02:55:48.694Z,2.90
2023-03-22T03:00:57.566Z,3.03
2023-03-22T03:06:08.573Z,3.33
2023-03-22T03:11:11.207Z,3.70
2023-03-22T03:16:17.328Z,3.10
2023-03-22T03:21:25.614Z,2.80
2023-03-22T03:26:44.020Z,3.03
2023-03-22T03:32:02.144Z,3.40
2023-03-22T03:37:14.448Z,3.00
2023-03-22T03:42:19.099Z,3.40
2023-03-22T03:47:23.076Z,3.20
2023-03-22T03:52:26.556Z,3.30
2023-03-22T03:57:28.692Z,2.70
2023-03-22T04:02:31.035Z,2.67
2023-03-22T04:07:35.730Z,3.20
2023-03-22T04:12:38.603Z,2.90
2023-03-22T04:17:54.017Z,2.67
2023-03-22T04:23:00.379Z,3.03
2023-03-22T04:28:04.413Z,3.07
2023-03-22T04:33:11.638Z,3.60
2023-03-22T04:38:43.577Z,3.20
2023-03-22T04:43:52.215Z,2.83
2023-03-22T04:48:54.877Z,2.60
2023-03-22T04:53:58.648Z,2.97
2023-03-22T04:59:01.419Z,3.37
2023-03-22T05:04:04.363Z,3.10
2023-03-22T05:09:07.277Z,3.40
2023-03-22T05:14:10.366Z,4.10
2023-03-22T05:19:16.201Z,3.63
2023-03-22T05:24:23.064Z,3.53
2023-03-22T05:29:27.151Z,3.37
2023-03-22T05:34:41.977Z,3.40
2023-03-22T05:39:55.222Z,3.17
2023-03-22T05:45:04.216Z,4.03
2023-03-22T05:50:14.296Z,3.80
2023-03-22T05:55:17.949Z,3.80
2023-03-22T06:00:22.279Z,3.60
2023-03-22T06:05:50.931Z,4.17
2023-03-22T06:10:56.049Z,3.53
2023-03-22T06:16:04.952Z,3.57
2023-03-22T06:21:07.537Z,3.47
2023-03-22T06:26:11.569Z,3.20
2023-03-22T06:31:15.512Z,3.97
2023-03-22T06:36:23.530Z,3.23
2023-03-22T06:41:46.030Z,3.77
2023-03-22T06:46:48.897Z,3.60
2023-03-22T06:52:05.543Z,3.67
2023-03-22T06:57:09.377Z,4.17
2023-03-22T07:02:13.484Z,3.33
2023-03-22T07:07:19.677Z,3.67
2023-03-22T07:12:21.929Z,3.80
2023-03-22T07:17:24.953Z,3.20
2023-03-22T07:22:27.848Z,3.60
2023-03-22T07:27:30.398Z,3.80
2023-03-22T07:32:33.083Z,3.40
2023-03-22T07:37:41.713Z,3.13
2023-03-22T07:42:55.778Z,3.43
2023-03-22T07:48:24.521Z,3.20
2023-03-22T07:53:45.792Z,2.13
2023-03-22T07:58:48.437Z,2.63
2023-03-22T08:03:51.506Z,1.77
2023-03-22T08:09:20.876Z,1.47
2023-03-22T08:14:34.045Z,1.20
2023-03-22T08:19:39.676Z,0.80
2023-03-22T08:24:45.718Z,0.67
2023-03-22T08:29:59.369Z,0.90
2023-03-22T08:35:05.037Z,0.80
2023-03-22T08:40:10.061Z,0.70
2023-03-22T08:45:17.332Z,0.87
2023-03-22T08:50:27.750Z,0.80
2023-03-22T08:55:45.037Z,0.90
2023-03-22T09:00:49.807Z,1.00
2023-03-22T09:06:00.626Z,0.80
2023-03-22T09:11:12.617Z,0.90
2023-03-22T09:16:15.384Z,1.00
2023-03-22T09:21:19.106Z,0.57
2023-03-22T09:26:28.610Z,0.90
2023-03-22T09:31:31.156Z,0.90
2023-03-22T09:36:45.592Z,0.97
2023-03-22T09:41:53.689Z,0.80
2023-03-22T09:47:00.118Z,0.83
2023-03-22T09:52:02.990Z,1.03
2023-03-22T09:57:34.381Z,0.70
2023-03-22T10:03:12.823Z,1.03
2023-03-22T10:08:37.090Z,1.00
2023-03-22T10:14:00.635Z,1.20
2023-03-22T10:19:33.975Z,0.93
2023-03-22T10:24:38.994Z,1.10
2023-03-22T10:29:46.810Z,0.70
2023-03-22T10:34:49.674Z,1.00
2023-03-22T10:40:00.511Z,1.50
2023-03-22T10:45:29.577Z,1.13
2023-03-22T10:50:39.859Z,1.20
2023-03-22T10:55:44.404Z,1.40
2023-03-22T11:00:55.219Z,1.30
2023-03-22T11:06:10.864Z,1.10
2023-03-22T11:11:27.939Z,1.47
2023-03-22T11:16:32.203Z,1.40
2023-03-22T11:21:34.466Z,1.10
2023-03-22T11:26:40.889Z,1.20
2023-03-22T11:31:59.212Z,1.30
2023-03-22T11:37:02.117Z,0.93
2023-03-22T11:42:07.028Z,1.80
2023-03-22T11:47:13.329Z,1.20
2023-03-22T11:52:24.959Z,1.33
2023-03-22T11:57:34.954Z,0.90
2023-03-22T12:02:55.551Z,1.23
2023-03-22T12:08:42.929Z,1.10
2023-03-22T12:14:02.377Z,0.93
2023-03-22T12:19:43.698Z,0.83
2023-03-22T12:24:46.333Z,1.10
2023-03-22T12:29:58.737Z,1.07
2023-03-22T12:35:18.095Z,1.10
2023-03-22T12:40:31.925Z,1.40
2023-03-22T12:45:41.337Z,1.10
2023-03-22T12:51:00.439Z,0.83
2023-03-22T12:56:03.700Z,1.20
2023-03-22T13:01:24.303Z,1.20
2023-03-22T13:06:34.182Z,1.13
2023-03-22T13:11:36.788Z,1.00
2023-03-22T13:16:56.927Z,1.00
2023-03-22T13:22:27.786Z,1.07
2023-03-22T13:28:02.985Z,1.20
2023-03-22T13:33:09.710Z,0.90
2023-03-22T13:38:35.344Z,1.30
2023-03-22T13:43:51.330Z,0.80
2023-03-22T13:49:02.764Z,0.93
2023-03-22T13:54:15.052Z,1.57
2023-03-22T13:59:27.269Z,1.33
2023-03-22T14:04:42.539Z,1.00
2023-03-22T14:09:54.620Z,1.20
2023-03-22T14:15:02.588Z,1.00
2023-03-22T14:20:10.767Z,1.20
